createdAt,value
2017-10-28T00:00:17.160Z,0
2017-10-28T00:00:57.776Z,0
2017-10-28T00:01:38.355Z,0
2017-10-28T00:02:18.989Z,0
2017-10-28T00:02:59.614Z,0
2017-10-28T00:03:40.241Z,0
2017-10-28T00:04:20.839Z,0
2017-10-28T00:05:01.436Z,0
2017-10-28T00:05:42.010Z,0
2017-10-28T00:06:22.598Z,0
2017-10-28T00:07:03.239Z,0
2017-10-28T00:07:43.842Z,0
2017-10-28T00:08:24.454Z,0
2017-10-28T00:09:05.057Z,0
2017-10-28T00:09:45.669Z,0
2017-10-28T00:10:26.264Z,0
2017-10-28T00:11:06.907Z,0
2017-10-28T00:11:47.488Z,0
2017-10-28T00:12:28.078Z,0
2017-10-28T00:13:08.660Z,0
2017-10-28T00:13:49.277Z,0
2017-10-28T00:14:29.862Z,0
2017-10-28T00:15:10.460Z,0
2017-10-28T00:15:51.042Z,0
2017-10-28T00:16:31.638Z,0
2017-10-28T00:17:12.249Z,0
2017-10-28T00:17:52.843Z,0
2017-10-28T00:18:33.436Z,0
2017-10-28T00:19:14.043Z,0
2017-10-28T00:19:54.651Z,0
2017-10-28T00:20:35.245Z,0
2017-10-28T00:21:15.812Z,0
2017-10-28T00:21:56.416Z,0
2017-10-28T00:22:36.974Z,0
2017-10-28T00:23:17.568Z,0
2017-10-28T00:23:58.160Z,0
2017-10-28T00:24:38.758Z,0
2017-10-28T00:25:19.342Z,0
2017-10-28T00:25:59.919Z,0
2017-10-28T00:26:40.482Z,0
2017-10-28T00:27:21.053Z,0
2017-10-28T00:28:01.646Z,0
2017-10-28T00:28:42.271Z,0
2017-10-28T00:29:22.829Z,0
2017-10-28T00:30:03.469Z,0
2017-10-28T00:30:44.104Z,0
2017-10-28T00:31:24.712Z,0
2017-10-28T00:32:06.263Z,0
2017-10-28T00:32:46.842Z,0
2017-10-28T00:33:27.455Z,0
2017-10-28T00:34:08.048Z,0
2017-10-28T00:34:48.666Z,0
2017-10-28T00:35:29.293Z,0
2017-10-28T00:36:09.903Z,0
2017-10-28T00:36:50.492Z,0
2017-10-28T00:37:31.071Z,0
2017-10-28T00:38:11.682Z,0
2017-10-28T00:38:52.233Z,0
2017-10-28T00:39:32.822Z,0
2017-10-28T00:40:13.405Z,0
2017-10-28T00:40:53.967Z,0
2017-10-28T00:41:34.563Z,0
2017-10-28T00:42:15.140Z,0
2017-10-28T00:42:55.725Z,0
2017-10-28T00:43:36.293Z,0
2017-10-28T00:44:16.900Z,0
2017-10-28T00:44:57.493Z,0
2017-10-28T00:45:38.102Z,0
2017-10-28T00:46:18.685Z,0
2017-10-28T00:46:59.248Z,0
2017-10-28T00:47:39.833Z,0
2017-10-28T00:48:20.405Z,0
2017-10-28T00:49:00.973Z,0
2017-10-28T00:49:41.558Z,0
2017-10-28T00:50:22.138Z,0
2017-10-28T00:51:02.729Z,0
2017-10-28T00:51:43.338Z,0
2017-10-28T00:52:23.922Z,0
2017-10-28T00:53:04.509Z,0
2017-10-28T00:53:45.077Z,0
2017-10-28T00:54:25.667Z,0
2017-10-28T00:55:06.239Z,0
2017-10-28T00:55:46.817Z,0
2017-10-28T00:56:27.382Z,0
2017-10-28T00:57:07.964Z,0
2017-10-28T00:57:48.538Z,0
2017-10-28T00:58:29.117Z,0
2017-10-28T00:59:09.675Z,0
2017-10-28T00:59:50.248Z,0
2017-10-28T01:00:30.812Z,0
2017-10-28T01:01:11.392Z,0
2017-10-28T01:01:51.963Z,0
2017-10-28T01:02:32.533Z,0
2017-10-28T01:03:13.122Z,0
2017-10-28T01:03:53.730Z,0
2017-10-28T01:04:34.307Z,0
2017-10-28T01:05:14.904Z,0
2017-10-28T01:05:55.490Z,0
2017-10-28T01:06:36.061Z,0
2017-10-28T01:07:16.641Z,0
2017-10-28T01:07:57.233Z,0
2017-10-28T01:08:37.820Z,0
2017-10-28T01:09:18.409Z,0
2017-10-28T01:09:59.262Z,0
2017-10-28T01:12:12.414Z,0
2017-10-28T01:12:52.977Z,0
2017-10-28T01:13:33.574Z,0
2017-10-28T01:14:14.173Z,0
2017-10-28T01:14:54.740Z,0
2017-10-28T01:15:35.293Z,0
2017-10-28T01:16:15.859Z,0
2017-10-28T01:16:56.480Z,0
2017-10-28T01:17:37.132Z,0
2017-10-28T01:18:17.704Z,0
2017-10-28T01:18:58.283Z,0
2017-10-28T01:19:38.869Z,0
2017-10-28T01:20:19.455Z,0
2017-10-28T01:21:00.207Z,0
2017-10-28T01:21:41.023Z,0
2017-10-28T01:22:21.650Z,0
2017-10-28T01:23:02.630Z,0
2017-10-28T01:23:43.197Z,0
2017-10-28T01:24:23.769Z,0
2017-10-28T01:25:04.320Z,0
2017-10-28T01:25:44.890Z,0
2017-10-28T01:26:25.463Z,0
2017-10-28T01:27:06.052Z,0
2017-10-28T01:27:46.610Z,0
2017-10-28T01:28:27.179Z,0
2017-10-28T01:29:07.745Z,0
2017-10-28T01:29:48.374Z,0
2017-10-28T01:30:29.020Z,0
2017-10-28T01:31:09.736Z,0
2017-10-28T01:31:50.368Z,0
2017-10-28T01:32:30.948Z,0
2017-10-28T01:33:11.549Z,0
2017-10-28T01:33:52.183Z,0
2017-10-28T01:34:32.750Z,0
2017-10-28T01:35:13.305Z,0
2017-10-28T01:35:53.874Z,0
2017-10-28T01:36:34.472Z,0
2017-10-28T01:37:15.042Z,0
2017-10-28T01:37:55.609Z,0
2017-10-28T01:38:36.210Z,0
2017-10-28T01:39:16.800Z,0
2017-10-28T01:39:57.352Z,0
2017-10-28T01:40:37.941Z,0
2017-10-28T01:41:18.543Z,0
2017-10-28T01:41:59.092Z,0
2017-10-28T01:42:39.657Z,0
2017-10-28T01:43:20.316Z,0
2017-10-28T01:44:00.913Z,0
2017-10-28T01:44:41.476Z,0
2017-10-28T01:45:22.131Z,0
2017-10-28T01:46:02.720Z,0
2017-10-28T01:46:43.328Z,0
2017-10-28T01:47:23.952Z,0
2017-10-28T01:48:04.561Z,0
2017-10-28T01:48:45.143Z,0
2017-10-28T01:49:25.708Z,0
2017-10-28T01:50:06.297Z,0
2017-10-28T01:50:46.861Z,0
2017-10-28T01:51:27.430Z,0
2017-10-28T01:52:08.008Z,0
2017-10-28T01:52:48.564Z,0
2017-10-28T01:53:29.193Z,0
2017-10-28T01:54:09.773Z,0
2017-10-28T01:54:50.336Z,0
2017-10-28T01:55:30.906Z,0
2017-10-28T01:56:11.489Z,0
2017-10-28T01:56:52.064Z,0
2017-10-28T01:57:32.641Z,0
2017-10-28T01:58:13.226Z,0
2017-10-28T01:58:53.815Z,0
2017-10-28T01:59:34.467Z,0
2017-10-28T02:00:15.066Z,0
2017-10-28T02:00:55.641Z,0
2017-10-28T02:01:36.226Z,0
2017-10-28T02:02:16.867Z,0
2017-10-28T02:02:57.435Z,0
2017-10-28T02:03:38.235Z,0
2017-10-28T02:04:18.797Z,0
2017-10-28T02:04:59.409Z,0
2017-10-28T02:05:39.982Z,0
2017-10-28T02:06:21.283Z,0
2017-10-28T02:07:01.877Z,0
2017-10-28T02:07:42.459Z,0
2017-10-28T02:08:23.029Z,0
2017-10-28T02:09:03.598Z,0
2017-10-28T02:09:44.152Z,0
2017-10-28T02:10:24.716Z,0
2017-10-28T02:11:05.281Z,0
2017-10-28T02:11:45.874Z,0
2017-10-28T02:12:26.443Z,0
2017-10-28T02:13:07.017Z,0
2017-10-28T02:13:47.576Z,0
2017-10-28T02:14:28.153Z,0
2017-10-28T02:15:08.741Z,0
2017-10-28T02:15:49.316Z,0
2017-10-28T02:16:29.947Z,0
2017-10-28T02:17:10.527Z,0
2017-10-28T02:17:51.096Z,0
2017-10-28T02:18:31.670Z,0
2017-10-28T02:19:12.237Z,0
2017-10-28T02:19:52.814Z,0
2017-10-28T02:20:33.390Z,0
2017-10-28T02:21:13.951Z,0
2017-10-28T02:21:54.525Z,0
2017-10-28T02:22:35.096Z,0
2017-10-28T02:23:15.708Z,0
2017-10-28T02:23:56.311Z,0
2017-10-28T02:24:36.869Z,0
2017-10-28T02:25:17.443Z,0
2017-10-28T02:25:57.999Z,0
2017-10-28T02:26:38.589Z,0
2017-10-28T02:27:19.197Z,0
2017-10-28T02:27:59.780Z,0
2017-10-28T02:28:40.345Z,0
2017-10-28T02:29:20.915Z,0
2017-10-28T02:30:01.475Z,0
2017-10-28T02:30:42.075Z,0
2017-10-28T02:31:22.661Z,0
2017-10-28T02:32:03.276Z,0
2017-10-28T02:32:43.856Z,0
2017-10-28T02:33:24.448Z,0
2017-10-28T02:34:05.036Z,0
2017-10-28T02:34:45.608Z,0
2017-10-28T02:35:26.181Z,0
2017-10-28T02:36:06.768Z,0
2017-10-28T02:36:47.329Z,0
2017-10-28T02:37:27.915Z,0
2017-10-28T02:38:08.479Z,0
2017-10-28T02:38:49.066Z,0
2017-10-28T02:39:29.652Z,0
2017-10-28T02:40:10.230Z,0
2017-10-28T02:40:50.819Z,0
2017-10-28T02:41:31.396Z,0
2017-10-28T02:42:11.978Z,0
2017-10-28T02:42:52.548Z,0
2017-10-28T02:43:33.173Z,0
2017-10-28T02:44:13.752Z,0
2017-10-28T02:44:54.321Z,0
2017-10-28T02:45:35.003Z,0
2017-10-28T02:46:15.576Z,0
2017-10-28T02:46:56.153Z,0
2017-10-28T02:47:36.770Z,0
2017-10-28T02:48:17.379Z,0
2017-10-28T02:48:57.960Z,0
2017-10-28T02:49:38.543Z,0
2017-10-28T02:50:19.179Z,0
2017-10-28T02:50:59.772Z,0
2017-10-28T02:51:40.337Z,0
2017-10-28T02:52:20.943Z,0
2017-10-28T02:53:01.505Z,0
2017-10-28T02:53:42.084Z,0
2017-10-28T02:54:22.667Z,0
2017-10-28T02:55:03.252Z,0
2017-10-28T02:55:43.827Z,0
2017-10-28T02:56:24.413Z,0
2017-10-28T02:57:04.966Z,0
2017-10-28T02:57:45.532Z,0
2017-10-28T02:58:26.103Z,0
2017-10-28T02:59:06.687Z,0
2017-10-28T02:59:47.281Z,0
2017-10-28T03:00:27.871Z,0
2017-10-28T03:01:08.433Z,0
2017-10-28T03:01:48.988Z,0
2017-10-28T03:02:29.549Z,0
2017-10-28T03:03:10.126Z,0
2017-10-28T03:03:50.696Z,0
2017-10-28T03:04:31.281Z,0
2017-10-28T03:05:11.857Z,0
2017-10-28T03:05:52.426Z,0
2017-10-28T03:06:33.245Z,0
2017-10-28T03:07:13.860Z,0
2017-10-28T03:07:54.458Z,0
2017-10-28T03:08:35.020Z,0
2017-10-28T03:09:15.592Z,0
2017-10-28T03:09:56.190Z,0
2017-10-28T03:10:36.764Z,0
2017-10-28T03:11:17.333Z,0
2017-10-28T03:11:58.094Z,0
2017-10-28T03:12:38.670Z,0
2017-10-28T03:13:19.252Z,0
2017-10-28T03:13:59.806Z,0
2017-10-28T03:14:40.374Z,0
2017-10-28T03:15:20.961Z,0
2017-10-28T03:16:01.520Z,0
2017-10-28T03:16:42.092Z,0
2017-10-28T03:17:22.706Z,0
2017-10-28T03:18:03.321Z,0
2017-10-28T03:18:43.894Z,0
2017-10-28T03:19:24.525Z,0
2017-10-28T03:20:05.120Z,0
2017-10-28T03:20:45.709Z,0
2017-10-28T03:21:26.263Z,0
2017-10-28T03:22:06.827Z,0
2017-10-28T03:22:47.409Z,0
2017-10-28T03:23:27.999Z,0
2017-10-28T03:24:08.590Z,0
2017-10-28T03:24:49.180Z,0
2017-10-28T03:25:29.776Z,0
2017-10-28T03:26:10.363Z,0
2017-10-28T03:26:50.937Z,0
2017-10-28T03:27:31.523Z,0
2017-10-28T03:28:12.111Z,0
2017-10-28T03:28:52.665Z,0
2017-10-28T03:29:33.237Z,0
2017-10-28T03:30:13.806Z,0
2017-10-28T03:30:54.371Z,0
2017-10-28T03:31:34.934Z,0
2017-10-28T03:32:15.499Z,0
2017-10-28T03:32:56.059Z,0
2017-10-28T03:33:36.631Z,0
2017-10-28T03:34:17.205Z,0
2017-10-28T03:34:57.795Z,0
2017-10-28T03:35:38.372Z,0
2017-10-28T03:36:18.946Z,0
2017-10-28T03:36:59.512Z,0
2017-10-28T03:37:40.068Z,0
2017-10-28T03:38:20.650Z,0
2017-10-28T03:39:01.235Z,0
2017-10-28T03:39:41.805Z,0
2017-10-28T03:40:22.380Z,0
2017-10-28T03:41:02.970Z,0
2017-10-28T03:41:43.544Z,0
2017-10-28T03:42:24.113Z,0
2017-10-28T03:43:04.683Z,0
2017-10-28T03:43:45.276Z,0
2017-10-28T03:44:25.857Z,0
2017-10-28T03:45:06.419Z,0
2017-10-28T03:45:46.987Z,0
2017-10-28T03:46:27.574Z,0
2017-10-28T03:47:08.139Z,0
2017-10-28T03:47:48.704Z,0
2017-10-28T03:48:29.273Z,0
2017-10-28T03:49:09.831Z,0
2017-10-28T03:49:50.390Z,0
2017-10-28T03:50:30.977Z,0
2017-10-28T03:51:11.534Z,0
2017-10-28T03:51:52.108Z,0
2017-10-28T03:52:32.684Z,0
2017-10-28T03:53:13.278Z,0
2017-10-28T03:53:53.856Z,0
2017-10-28T03:54:34.424Z,0
2017-10-28T03:55:14.983Z,0
2017-10-28T03:55:55.571Z,0
2017-10-28T03:56:36.140Z,0
2017-10-28T03:57:16.712Z,0
2017-10-28T03:57:57.280Z,0
2017-10-28T03:58:37.891Z,0
2017-10-28T03:59:18.450Z,0
2017-10-28T03:59:59.018Z,0
2017-10-28T04:00:39.603Z,0
2017-10-28T04:01:20.170Z,0
2017-10-28T04:02:00.737Z,0
2017-10-28T04:02:41.307Z,0
2017-10-28T04:03:21.876Z,0
2017-10-28T04:04:02.471Z,0
2017-10-28T04:04:43.043Z,0
2017-10-28T04:05:23.611Z,0
2017-10-28T04:06:04.189Z,0
2017-10-28T04:06:44.774Z,0
2017-10-28T04:07:25.361Z,0
2017-10-28T04:08:05.920Z,0
2017-10-28T04:08:46.489Z,0
2017-10-28T04:09:27.066Z,0
2017-10-28T04:10:07.636Z,0
2017-10-28T04:10:48.199Z,0
2017-10-28T04:11:28.778Z,0
2017-10-28T04:12:09.352Z,0
2017-10-28T04:12:49.935Z,0
2017-10-28T04:13:30.504Z,0
2017-10-28T04:14:11.073Z,0
2017-10-28T04:14:51.656Z,0
2017-10-28T04:15:32.229Z,0
2017-10-28T04:16:12.804Z,0
2017-10-28T04:16:53.372Z,0
2017-10-28T04:17:33.941Z,0
2017-10-28T04:18:14.518Z,0
2017-10-28T04:18:55.103Z,0
2017-10-28T04:19:35.679Z,0
2017-10-28T04:20:16.295Z,0
2017-10-28T04:20:56.863Z,0
2017-10-28T04:21:37.430Z,0
2017-10-28T04:22:18.019Z,0
2017-10-28T04:22:58.599Z,0
2017-10-28T04:23:39.170Z,0
2017-10-28T04:24:19.757Z,0
2017-10-28T04:25:00.314Z,0
2017-10-28T04:25:40.897Z,0
2017-10-28T04:26:21.490Z,0
2017-10-28T04:27:02.055Z,0
2017-10-28T04:27:42.657Z,0
2017-10-28T04:28:23.219Z,0
2017-10-28T04:29:03.808Z,0
2017-10-28T04:29:44.424Z,0
2017-10-28T04:30:25.015Z,0
2017-10-28T04:31:05.594Z,0
2017-10-28T04:31:46.164Z,0
2017-10-28T04:32:26.749Z,0
2017-10-28T04:33:07.388Z,0
2017-10-28T04:33:47.997Z,0
2017-10-28T04:34:28.584Z,0
2017-10-28T04:35:09.154Z,0
2017-10-28T04:35:49.738Z,0
2017-10-28T04:36:30.297Z,0
2017-10-28T04:37:10.888Z,0
2017-10-28T04:37:51.452Z,0
2017-10-28T04:38:32.033Z,0
2017-10-28T04:39:12.631Z,0
2017-10-28T04:39:53.211Z,0
2017-10-28T04:40:33.796Z,0
2017-10-28T04:41:14.362Z,0
2017-10-28T04:41:54.928Z,0
2017-10-28T04:42:35.494Z,0
2017-10-28T04:43:16.101Z,0
2017-10-28T04:43:56.683Z,0
2017-10-28T04:44:37.256Z,0
2017-10-28T04:45:17.842Z,0
2017-10-28T04:45:58.431Z,0
2017-10-28T04:46:39.009Z,0
2017-10-28T04:47:19.602Z,0
2017-10-28T04:48:00.202Z,0
2017-10-28T04:48:40.759Z,0
2017-10-28T04:49:21.344Z,0
2017-10-28T04:50:01.927Z,0
2017-10-28T04:50:42.504Z,0
2017-10-28T04:51:23.074Z,0
2017-10-28T04:52:03.684Z,0
2017-10-28T04:52:44.271Z,0
2017-10-28T04:53:24.901Z,0
2017-10-28T04:54:05.488Z,0
2017-10-28T04:54:46.091Z,0
2017-10-28T04:55:26.690Z,0
2017-10-28T04:56:07.287Z,0
2017-10-28T04:56:47.856Z,0
2017-10-28T04:57:28.445Z,0
2017-10-28T04:58:09.055Z,0
2017-10-28T04:58:49.631Z,0
2017-10-28T04:59:30.204Z,0
2017-10-28T05:00:10.772Z,0
2017-10-28T05:00:51.344Z,0
2017-10-28T05:01:31.936Z,0
2017-10-28T05:02:12.536Z,0
2017-10-28T05:02:53.111Z,0
2017-10-28T05:03:33.687Z,0
2017-10-28T05:04:14.275Z,0
2017-10-28T05:04:54.861Z,0
2017-10-28T05:05:35.461Z,0
2017-10-28T05:06:16.090Z,0
2017-10-28T05:06:56.686Z,0
2017-10-28T05:07:37.266Z,0
2017-10-28T05:08:17.860Z,0
2017-10-28T05:08:58.455Z,0
2017-10-28T05:09:39.050Z,0
2017-10-28T05:10:19.663Z,0
2017-10-28T05:11:00.256Z,0
2017-10-28T05:11:40.860Z,0
2017-10-28T05:12:21.461Z,0
2017-10-28T05:13:02.039Z,0
2017-10-28T05:13:42.758Z,0
2017-10-28T05:14:23.366Z,0
2017-10-28T05:15:04.003Z,0
2017-10-28T05:15:44.634Z,0
2017-10-28T05:16:25.217Z,0
2017-10-28T05:17:05.840Z,0
2017-10-28T05:17:46.416Z,0
2017-10-28T05:18:27.033Z,0
2017-10-28T05:19:07.633Z,0
2017-10-28T05:19:48.250Z,0
2017-10-28T05:20:28.819Z,0
2017-10-28T05:21:09.381Z,0
2017-10-28T05:21:49.973Z,0
2017-10-28T05:22:30.546Z,0
2017-10-28T05:23:11.112Z,0
2017-10-28T05:23:51.682Z,0
2017-10-28T05:24:32.292Z,0
2017-10-28T05:25:12.871Z,0
2017-10-28T05:25:53.459Z,0
2017-10-28T05:26:34.029Z,0
2017-10-28T05:27:14.648Z,0
2017-10-28T05:27:55.218Z,0
2017-10-28T05:28:35.783Z,0
2017-10-28T05:29:16.380Z,0
2017-10-28T05:29:56.942Z,0
2017-10-28T05:30:37.537Z,0
2017-10-28T05:31:18.117Z,0
2017-10-28T05:31:58.686Z,0
2017-10-28T05:32:39.262Z,0
2017-10-28T05:33:19.847Z,0
2017-10-28T05:34:00.426Z,0
2017-10-28T05:34:41.011Z,0
2017-10-28T05:35:21.619Z,0
2017-10-28T05:36:02.206Z,0
2017-10-28T05:36:42.773Z,0
2017-10-28T05:37:23.393Z,0
2017-10-28T05:38:03.994Z,0
2017-10-28T05:38:44.566Z,0
2017-10-28T05:39:25.155Z,0
2017-10-28T05:40:05.726Z,0
2017-10-28T05:40:46.326Z,0
2017-10-28T05:41:26.914Z,0
2017-10-28T05:42:07.488Z,0
2017-10-28T05:42:48.210Z,0
2017-10-28T05:43:29.181Z,0
2017-10-28T05:44:09.783Z,0
2017-10-28T05:44:50.363Z,0
2017-10-28T05:45:30.988Z,0
2017-10-28T05:46:11.824Z,0
2017-10-28T05:46:52.442Z,0
2017-10-28T05:47:33.013Z,0
2017-10-28T05:48:13.598Z,0
2017-10-28T05:48:54.198Z,0
2017-10-28T05:49:34.768Z,0
2017-10-28T05:50:15.342Z,0
2017-10-28T05:50:55.912Z,0
2017-10-28T05:51:36.488Z,0
2017-10-28T05:52:17.112Z,0
2017-10-28T05:52:57.639Z,0
2017-10-28T05:53:38.240Z,0
2017-10-28T05:54:18.801Z,0
2017-10-28T05:54:59.384Z,0
2017-10-28T05:55:39.978Z,0
2017-10-28T05:56:20.550Z,0
2017-10-28T05:57:01.125Z,0
2017-10-28T05:57:41.690Z,0
2017-10-28T05:58:22.261Z,0
2017-10-28T05:59:02.857Z,0
2017-10-28T05:59:43.434Z,0
2017-10-28T06:00:24.035Z,0
2017-10-28T06:01:04.691Z,0
2017-10-28T06:01:45.281Z,0
2017-10-28T06:02:25.854Z,0
2017-10-28T06:03:06.501Z,0
2017-10-28T06:03:47.081Z,0
2017-10-28T06:04:27.682Z,0
2017-10-28T06:05:08.263Z,0
2017-10-28T06:05:48.838Z,0
2017-10-28T06:06:29.413Z,0
2017-10-28T06:07:09.998Z,0
2017-10-28T06:07:50.595Z,0
2017-10-28T06:08:31.169Z,0
2017-10-28T06:09:11.743Z,0
2017-10-28T06:09:52.320Z,0
2017-10-28T06:10:32.901Z,0
2017-10-28T06:11:13.491Z,0
2017-10-28T06:11:54.067Z,0
2017-10-28T06:12:34.644Z,0
2017-10-28T06:13:15.206Z,0
2017-10-28T06:13:55.791Z,0
2017-10-28T06:14:36.351Z,0
2017-10-28T06:15:16.927Z,0
2017-10-28T06:15:57.512Z,0
2017-10-28T06:16:38.068Z,5
2017-10-28T06:17:18.761Z,5
2017-10-28T06:17:59.317Z,5
2017-10-28T06:18:39.896Z,5
2017-10-28T06:19:20.469Z,5
2017-10-28T06:20:01.097Z,5
2017-10-28T06:20:41.768Z,5
2017-10-28T06:21:22.366Z,5
2017-10-28T06:22:02.980Z,5
2017-10-28T06:22:43.545Z,5
2017-10-28T06:23:24.117Z,5
2017-10-28T06:24:04.702Z,5
2017-10-28T06:24:45.268Z,5
2017-10-28T06:25:25.834Z,5
2017-10-28T06:26:06.417Z,5
2017-10-28T06:26:46.994Z,5
2017-10-28T06:27:27.555Z,5
2017-10-28T06:28:08.120Z,5
2017-10-28T06:28:48.808Z,5
2017-10-28T06:29:29.422Z,5
2017-10-28T06:30:10.016Z,5
2017-10-28T06:30:50.622Z,5
2017-10-28T06:31:31.187Z,5
2017-10-28T06:32:11.757Z,5
2017-10-28T06:32:52.330Z,5
2017-10-28T06:33:32.899Z,5
2017-10-28T06:34:13.489Z,10
2017-10-28T06:34:54.064Z,10
2017-10-28T06:35:34.613Z,10
2017-10-28T06:36:15.173Z,10
2017-10-28T06:36:55.742Z,10
2017-10-28T06:37:36.330Z,10
2017-10-28T06:38:16.912Z,10
2017-10-28T06:38:57.531Z,10
2017-10-28T06:39:38.083Z,10
2017-10-28T06:40:18.694Z,10
2017-10-28T06:40:59.309Z,5
2017-10-28T06:41:39.898Z,5
2017-10-28T06:42:20.500Z,5
2017-10-28T06:43:01.139Z,10
2017-10-28T06:43:41.695Z,10
2017-10-28T06:44:22.268Z,10
2017-10-28T06:45:02.854Z,10
2017-10-28T06:45:43.438Z,10
2017-10-28T06:46:24.011Z,10
2017-10-28T06:47:04.579Z,10
2017-10-28T06:47:45.156Z,10
2017-10-28T06:48:25.763Z,10
2017-10-28T06:49:06.361Z,15
2017-10-28T06:49:46.931Z,15
2017-10-28T06:50:27.530Z,15
2017-10-28T06:51:08.731Z,15
2017-10-28T06:51:49.362Z,15
2017-10-28T06:52:29.926Z,20
2017-10-28T06:53:10.501Z,20
2017-10-28T06:53:51.083Z,25
2017-10-28T06:54:31.768Z,20
2017-10-28T06:55:12.345Z,20
2017-10-28T06:55:52.920Z,15
2017-10-28T06:56:33.501Z,15
2017-10-28T06:57:14.067Z,15
2017-10-28T06:57:54.635Z,15
2017-10-28T06:58:35.214Z,15
2017-10-28T06:59:15.832Z,15
2017-10-28T06:59:56.505Z,10
2017-10-28T07:00:37.065Z,10
2017-10-28T07:01:17.633Z,10
2017-10-28T07:01:58.235Z,10
2017-10-28T07:02:46.174Z,10
2017-10-28T07:03:26.769Z,10
2017-10-28T07:04:07.375Z,10
2017-10-28T07:04:47.994Z,10
2017-10-28T07:05:28.581Z,10
2017-10-28T07:06:09.172Z,10
2017-10-28T07:06:49.755Z,10
2017-10-28T07:07:30.309Z,10
2017-10-28T07:08:10.887Z,10
2017-10-28T07:08:51.458Z,10
2017-10-28T07:09:32.032Z,10
2017-10-28T07:10:12.603Z,10
2017-10-28T07:10:53.192Z,5
2017-10-28T07:11:33.772Z,10
2017-10-28T07:12:14.363Z,10
2017-10-28T07:12:54.948Z,10
2017-10-28T07:13:35.519Z,10
2017-10-28T07:14:16.097Z,10
2017-10-28T07:14:56.674Z,10
2017-10-28T07:15:37.250Z,10
2017-10-28T07:16:17.850Z,10
2017-10-28T07:16:58.458Z,10
2017-10-28T07:17:39.028Z,10
2017-10-28T07:18:19.645Z,10
2017-10-28T07:19:00.210Z,10
2017-10-28T07:19:40.769Z,10
2017-10-28T07:20:21.323Z,5
2017-10-28T07:21:01.891Z,5
2017-10-28T07:21:42.448Z,10
2017-10-28T07:22:23.016Z,10
2017-10-28T07:23:03.610Z,10
2017-10-28T07:23:44.199Z,10
2017-10-28T07:24:24.767Z,15
2017-10-28T07:25:05.367Z,15
2017-10-28T07:25:46.005Z,15
2017-10-28T07:26:26.584Z,15
2017-10-28T07:27:07.139Z,20
2017-10-28T07:27:47.729Z,20
2017-10-28T07:28:28.325Z,15
2017-10-28T07:29:08.945Z,20
2017-10-28T07:29:49.545Z,20
2017-10-28T07:30:30.263Z,20
2017-10-28T07:31:10.845Z,20
2017-10-28T07:31:51.410Z,20
2017-10-28T07:32:31.992Z,20
2017-10-28T07:33:12.576Z,20
2017-10-28T07:33:53.180Z,20
2017-10-28T07:34:33.768Z,20
2017-10-28T07:35:14.406Z,20
2017-10-28T07:35:55.025Z,20
2017-10-28T07:36:35.602Z,25
2017-10-28T07:37:16.205Z,20
2017-10-28T07:37:56.743Z,20
2017-10-28T07:38:37.332Z,25
2017-10-28T07:39:17.921Z,25
2017-10-28T07:39:58.494Z,25
2017-10-28T07:40:39.093Z,25
2017-10-28T07:41:19.670Z,30
2017-10-28T07:42:00.240Z,25
2017-10-28T07:42:40.832Z,25
2017-10-28T07:43:21.414Z,25
2017-10-28T07:44:01.997Z,20
2017-10-28T07:44:42.595Z,20
2017-10-28T07:45:23.158Z,25
2017-10-28T07:46:03.729Z,25
2017-10-28T07:46:44.303Z,30
2017-10-28T07:47:24.884Z,35
2017-10-28T07:48:05.443Z,35
2017-10-28T07:48:46.007Z,40
2017-10-28T07:49:26.568Z,50
2017-10-28T07:50:07.162Z,45
2017-10-28T07:50:47.777Z,40
2017-10-28T07:51:28.350Z,45
2017-10-28T07:52:08.940Z,40
2017-10-28T07:52:49.555Z,35
2017-10-28T07:53:30.104Z,25
2017-10-28T07:54:10.678Z,25
2017-10-28T07:54:51.259Z,20
2017-10-28T07:55:31.829Z,20
2017-10-28T07:56:12.429Z,15
2017-10-28T07:56:53.022Z,15
2017-10-28T07:57:33.593Z,15
2017-10-28T07:58:14.177Z,20
2017-10-28T07:58:54.741Z,20
2017-10-28T07:59:35.320Z,25
2017-10-28T08:00:15.899Z,30
2017-10-28T08:00:56.472Z,35
2017-10-28T08:01:37.128Z,40
2017-10-28T08:02:17.811Z,40
2017-10-28T08:02:58.385Z,35
2017-10-28T08:03:38.989Z,25
2017-10-28T08:04:19.557Z,25
2017-10-28T08:05:00.164Z,25
2017-10-28T08:05:40.744Z,25
2017-10-28T08:06:21.393Z,30
2017-10-28T08:07:01.975Z,35
2017-10-28T08:07:42.599Z,30
2017-10-28T08:08:23.229Z,35
2017-10-28T08:09:03.933Z,35
2017-10-28T08:09:44.539Z,40
2017-10-28T08:10:25.119Z,35
2017-10-28T08:11:05.826Z,30
2017-10-28T08:11:46.359Z,30
2017-10-28T08:12:26.935Z,20
2017-10-28T08:13:07.541Z,15
2017-10-28T08:13:48.154Z,15
2017-10-28T08:14:28.736Z,15
2017-10-28T08:15:09.363Z,15
2017-10-28T08:15:49.927Z,15
2017-10-28T08:16:30.556Z,15
2017-10-28T08:17:11.146Z,20
2017-10-28T08:17:51.734Z,20
2017-10-28T08:18:32.339Z,20
2017-10-28T08:19:12.934Z,20
2017-10-28T08:19:53.511Z,15
2017-10-28T08:20:34.107Z,15
2017-10-28T08:21:14.761Z,10
2017-10-28T08:21:55.342Z,10
2017-10-28T08:22:35.915Z,10
2017-10-28T08:23:16.494Z,10
2017-10-28T08:23:57.065Z,10
2017-10-28T08:24:37.694Z,10
2017-10-28T08:25:18.281Z,10
2017-10-28T08:25:58.900Z,10
2017-10-28T08:26:39.468Z,10
2017-10-28T08:27:20.078Z,10
2017-10-28T08:28:00.663Z,10
2017-10-28T08:28:41.255Z,10
2017-10-28T08:29:21.930Z,10
2017-10-28T08:30:02.641Z,5
2017-10-28T08:30:43.253Z,5
2017-10-28T08:31:23.830Z,5
2017-10-28T08:32:04.388Z,5
2017-10-28T08:32:44.989Z,5
2017-10-28T08:33:25.597Z,10
2017-10-28T08:34:07.052Z,10
2017-10-28T08:34:47.639Z,15
2017-10-28T08:35:28.230Z,20
2017-10-28T08:36:08.857Z,25
2017-10-28T08:36:49.439Z,25
2017-10-28T08:37:30.010Z,25
2017-10-28T08:38:10.607Z,35
2017-10-28T08:38:51.189Z,35
2017-10-28T08:39:31.764Z,30
2017-10-28T08:40:12.342Z,30
2017-10-28T08:40:52.918Z,30
2017-10-28T08:41:33.495Z,35
2017-10-28T08:42:14.059Z,35
2017-10-28T08:42:54.626Z,35
2017-10-28T08:43:35.200Z,30
2017-10-28T08:44:15.930Z,25
2017-10-28T08:44:56.579Z,25
2017-10-28T08:45:37.158Z,25
2017-10-28T08:46:17.708Z,25
2017-10-28T08:46:58.299Z,25
2017-10-28T08:47:38.897Z,30
2017-10-28T08:48:19.447Z,30
2017-10-28T08:49:00.051Z,30
2017-10-28T08:49:40.628Z,35
2017-10-28T08:50:21.202Z,30
2017-10-28T08:51:01.834Z,30
2017-10-28T08:51:42.400Z,30
2017-10-28T08:52:22.984Z,30
2017-10-28T08:53:03.557Z,30
2017-10-28T08:53:44.195Z,35
2017-10-28T08:54:24.788Z,35
2017-10-28T08:55:05.378Z,35
2017-10-28T08:55:45.976Z,35
2017-10-28T08:56:26.563Z,35
2017-10-28T08:57:07.161Z,35
2017-10-28T08:57:47.759Z,35
2017-10-28T08:58:28.358Z,30
2017-10-28T08:59:08.934Z,25
2017-10-28T08:59:49.544Z,30
2017-10-28T09:00:30.134Z,30
2017-10-28T09:01:10.730Z,30
2017-10-28T09:01:51.296Z,30
2017-10-28T09:02:31.898Z,35
2017-10-28T09:03:12.481Z,30
2017-10-28T09:03:53.050Z,20
2017-10-28T09:04:33.671Z,20
2017-10-28T09:05:14.254Z,15
2017-10-28T09:05:54.882Z,15
2017-10-28T09:06:35.546Z,15
2017-10-28T09:07:16.114Z,20
2017-10-28T09:07:56.691Z,20
2017-10-28T09:08:37.309Z,20
2017-10-28T09:09:17.889Z,20
2017-10-28T09:09:58.555Z,15
2017-10-28T09:10:39.125Z,15
2017-10-28T09:11:19.715Z,15
2017-10-28T09:12:00.328Z,15
2017-10-28T09:12:40.923Z,15
2017-10-28T09:13:21.598Z,20
2017-10-28T09:14:02.237Z,20
2017-10-28T09:14:42.840Z,25
2017-10-28T09:15:23.442Z,25
2017-10-28T09:16:04.036Z,25
2017-10-28T09:16:44.622Z,25
2017-10-28T09:17:25.208Z,25
2017-10-28T09:18:05.812Z,20
2017-10-28T09:18:46.406Z,20
2017-10-28T09:19:26.996Z,20
2017-10-28T09:20:07.592Z,25
2017-10-28T09:20:48.166Z,25
2017-10-28T09:21:28.788Z,30
2017-10-28T09:22:09.375Z,35
2017-10-28T09:22:49.976Z,40
2017-10-28T09:23:30.557Z,45
2017-10-28T09:24:11.146Z,50
2017-10-28T09:24:51.716Z,50
2017-10-28T09:25:32.329Z,45
2017-10-28T09:26:12.967Z,50
2017-10-28T09:26:53.565Z,45
2017-10-28T09:27:34.139Z,50
2017-10-28T09:28:14.733Z,60
2017-10-28T09:28:55.301Z,60
2017-10-28T09:29:35.891Z,60
2017-10-28T09:30:16.448Z,50
2017-10-28T09:30:57.008Z,40
2017-10-28T09:31:37.651Z,35
2017-10-28T09:32:18.222Z,35
2017-10-28T09:32:58.788Z,30
2017-10-28T09:33:39.380Z,30
2017-10-28T09:34:19.948Z,30
2017-10-28T09:35:00.562Z,30
2017-10-28T09:35:41.155Z,30
2017-10-28T09:36:21.767Z,35
2017-10-28T09:37:02.346Z,35
2017-10-28T09:37:42.913Z,35
2017-10-28T09:38:23.502Z,30
2017-10-28T09:39:04.074Z,30
2017-10-28T09:39:44.655Z,30
2017-10-28T09:40:25.292Z,35
2017-10-28T09:41:05.873Z,35
2017-10-28T09:41:46.456Z,40
2017-10-28T09:42:27.057Z,40
2017-10-28T09:43:07.611Z,35
2017-10-28T09:43:48.199Z,30
2017-10-28T09:44:28.799Z,35
2017-10-28T09:45:09.391Z,35
2017-10-28T09:45:50.009Z,40
2017-10-28T09:46:30.628Z,40
2017-10-28T09:47:11.193Z,40
2017-10-28T09:47:51.764Z,40
2017-10-28T09:48:32.346Z,40
2017-10-28T09:49:12.936Z,45
2017-10-28T09:49:53.752Z,40
2017-10-28T09:50:34.504Z,45
2017-10-28T09:51:15.083Z,40
2017-10-28T09:51:55.685Z,40
2017-10-28T09:52:36.261Z,35
2017-10-28T09:53:16.923Z,30
2017-10-28T09:53:57.512Z,30
2017-10-28T09:54:38.088Z,30